Time;durP1;ratioP1;P1;durP2;ratioP2;P2;SDS_P1;SDS_P2;PMS_P1;PMS_P2;Temp;Humidity;BMP_temperature;BMP_pressure;BME280_temperature;BME280_humidity;BME280_pressure;Samples;Min_cycle;Max_cycle;Signal;HPM_P1;HPM_P2
2023/08/15 00:00:18;;;;;;;9.95;8.20;;;22.30;99.90;;;;;;7595389;19;20018;-72
2023/08/15 00:02:50;;;;;;;10.43;8.50;;;22.30;99.90;;;;;;7598900;19;20298;-73
2023/08/15 00:05:22;;;;;;;10.27;8.63;;;22.20;99.90;;;;;;7594392;19;20598;-73
2023/08/15 00:08:04;;;;;;;8.95;8.05;;;22.10;99.90;;;;;;7598924;19;20027;-73
2023/08/15 00:10:37;;;;;;;11.48;8.18;;;22.10;99.90;;;;;;7596573;19;20010;-72
2023/08/15 00:13:09;;;;;;;9.53;8.53;;;22.10;99.90;;;;;;7599273;19;20082;-74
2023/08/15 00:15:42;;;;;;;9.85;8.82;;;22.10;99.90;;;;;;7597259;19;21174;-73
2023/08/15 00:18:14;;;;;;;11.68;8.98;;;22.20;99.90;;;;;;7599714;19;20051;-72
2023/08/15 00:20:48;;;;;;;15.13;9.70;;;22.00;99.90;;;;;;7602634;19;20022;-73
2023/08/15 00:23:20;;;;;;;11.13;8.65;;;22.00;99.90;;;;;;7597881;19;20026;-73
2023/08/15 00:25:52;;;;;;;12.75;8.40;;;22.00;99.90;;;;;;7598139;19;20046;-73
2023/08/15 00:28:24;;;;;;;12.60;8.38;;;22.00;99.90;;;;;;7592296;19;20018;-72
2023/08/15 00:30:57;;;;;;;9.65;8.23;;;22.00;99.90;;;;;;7599454;19;20010;-73
2023/08/15 00:33:29;;;;;;;11.20;8.53;;;22.00;99.90;;;;;;7598512;19;20023;-73
2023/08/15 00:36:04;;;;;;;10.07;8.20;;;22.00;99.90;;;;;;7595604;19;20015;-73
2023/08/15 00:38:36;;;;;;;9.05;8.15;;;22.10;99.90;;;;;;7581799;19;20025;-73
2023/08/15 00:41:09;;;;;;;10.65;8.63;;;22.00;99.90;;;;;;7595154;19;23924;-73
2023/08/15 00:43:41;;;;;;;13.48;8.50;;;21.90;99.90;;;;;;7592085;19;20868;-73
2023/08/15 00:46:16;;;;;;;9.70;8.70;;;21.90;99.90;;;;;;7599408;19;20018;-72
2023/08/15 00:48:49;;;;;;;8.75;7.75;;;21.80;99.90;;;;;;7597036;19;20602;-74
2023/08/15 00:51:21;;;;;;;9.18;7.88;;;21.90;99.90;;;;;;7595462;19;20023;-73
2023/08/15 00:53:54;;;;;;;11.50;8.38;;;21.90;99.90;;;;;;7596980;19;20022;-73
2023/08/15 00:56:26;;;;;;;9.37;8.00;;;21.90;99.90;;;;;;7589552;19;20022;-74
2023/08/15 00:59:00;;;;;;;10.93;7.72;;;21.80;99.90;;;;;;7589696;19;20793;-72
2023/08/15 01:01:36;;;;;;;9.60;8.20;;;21.80;99.90;;;;;;7592883;19;20022;-74
2023/08/15 01:04:09;;;;;;;11.50;7.80;;;21.70;99.90;;;;;;7593788;19;20103;-74
2023/08/15 01:06:41;;;;;;;10.77;8.45;;;21.60;99.90;;;;;;7592260;19;20014;-73
2023/08/15 01:09:13;;;;;;;10.57;8.25;;;21.60;99.90;;;;;;7594932;19;20022;-72
2023/08/15 01:11:56;;;;;;;10.70;8.73;;;21.70;99.90;;;;;;7599439;19;20056;-73
2023/08/15 01:14:37;;;;;;;12.77;8.45;;;21.60;99.90;;;;;;7591591;19;20017;-72
2023/08/15 01:17:15;;;;;;;9.75;8.55;;;21.60;99.90;;;;;;7588993;19;20015;-72
2023/08/15 01:19:51;;;;;;;15.23;8.57;;;21.70;99.90;;;;;;7597148;19;20014;-73
2023/08/15 01:22:28;;;;;;;8.90;7.80;;;21.80;99.90;;;;;;7591951;19;20022;-73
2023/08/15 01:25:00;;;;;;;10.05;8.25;;;21.80;99.90;;;;;;7592493;19;20064;-73
2023/08/15 01:27:32;;;;;;;9.10;8.20;;;21.70;99.90;;;;;;7590656;19;20131;-72
2023/08/15 01:30:05;;;;;;;8.88;7.88;;;21.60;99.90;;;;;;7589026;19;20664;-73
2023/08/15 01:33:06;;;;;;;9.88;7.68;;;21.60;99.90;;;;;;7592718;19;20044;-73
2023/08/15 01:35:45;;;;;;;9.93;7.95;;;21.60;99.90;;;;;;7592288;19;20376;-74
2023/08/15 01:38:42;;;;;;;10.35;8.27;;;21.60;99.90;;;;;;7590054;19;20023;-71
2023/08/15 01:41:19;;;;;;;8.57;7.53;;;21.50;99.90;;;;;;7595430;19;20023;-73
2023/08/15 01:43:54;;;;;;;10.77;7.78;;;21.40;99.90;;;;;;7594837;19;20047;-73
2023/08/15 01:46:27;;;;;;;8.73;7.82;;;21.40;99.90;;;;;;7593596;19;20042;-72
2023/08/15 01:49:00;;;;;;;9.10;8.20;;;21.40;99.90;;;;;;7595761;19;20051;-72
2023/08/15 01:51:33;;;;;;;9.25;8.25;;;21.30;99.90;;;;;;7594810;19;20018;-72
2023/08/15 01:54:05;;;;;;;16.83;8.52;;;21.30;99.90;;;;;;7593061;19;20030;-72
2023/08/15 01:56:37;;;;;;;8.98;7.57;;;21.40;99.90;;;;;;7588356;19;20018;-72
2023/08/15 01:59:10;;;;;;;11.10;7.38;;;21.40;99.90;;;;;;7584460;19;20010;-74
2023/08/15 02:01:42;;;;;;;11.90;7.97;;;21.50;99.90;;;;;;7584660;19;20018;-72
2023/08/15 02:04:14;;;;;;;9.35;7.57;;;21.50;99.90;;;;;;7589535;19;20022;-73
2023/08/15 02:06:47;;;;;;;7.60;6.90;;;21.50;99.90;;;;;;7592807;19;20635;-72
2023/08/15 02:09:19;;;;;;;9.25;7.80;;;21.60;99.90;;;;;;7592753;19;20022;-72
2023/08/15 02:11:52;;;;;;;10.73;7.57;;;21.50;99.90;;;;;;7595556;19;20044;-72
2023/08/15 02:14:25;;;;;;;10.00;8.15;;;21.40;99.90;;;;;;7586387;19;20022;-73
2023/08/15 02:16:57;;;;;;;10.35;7.97;;;21.30;99.90;;;;;;7591069;19;20022;-73
2023/08/15 02:19:29;;;;;;;12.15;7.53;;;21.20;99.90;;;;;;7589984;19;20021;-73
2023/08/15 02:22:01;;;;;;;9.07;7.70;;;21.20;99.90;;;;;;7593567;19;20052;-72
2023/08/15 02:24:34;;;;;;;10.60;7.95;;;21.10;99.90;;;;;;7585268;19;20162;-74
2023/08/15 02:27:06;;;;;;;11.93;8.30;;;21.00;99.90;;;;;;7593647;19;20060;-73
2023/08/15 02:29:38;;;;;;;11.57;8.35;;;21.00;99.90;;;;;;7590149;19;20075;-73
2023/08/15 02:32:10;;;;;;;11.75;7.43;;;20.90;99.90;;;;;;7593229;19;20028;-73
2023/08/15 02:34:42;;;;;;;9.23;7.68;;;21.00;99.90;;;;;;7588273;19;20436;-73
2023/08/15 02:37:15;;;;;;;9.23;7.55;;;21.00;99.90;;;;;;7580863;19;20926;-73
2023/08/15 02:39:47;;;;;;;13.38;7.80;;;21.20;99.90;;;;;;7578081;19;21176;-74
2023/08/15 02:42:19;;;;;;;9.73;7.93;;;21.20;99.90;;;;;;7582437;19;20018;-72
2023/08/15 02:44:52;;;;;;;10.45;7.43;;;21.00;99.90;;;;;;7583845;19;20026;-73
2023/08/15 02:47:24;;;;;;;8.50;7.10;;;20.90;99.90;;;;;;7577053;19;20015;-72
2023/08/15 02:49:56;;;;;;;10.23;7.78;;;20.80;99.90;;;;;;7572926;19;20109;-72
2023/08/15 02:52:28;;;;;;;8.48;6.95;;;20.70;99.90;;;;;;7574415;19;20564;-73
2023/08/15 02:55:00;;;;;;;9.30;8.07;;;20.60;99.90;;;;;;7579705;19;20033;-72
2023/08/15 02:57:33;;;;;;;10.88;8.07;;;20.70;99.90;;;;;;7573728;19;20040;-72
2023/08/15 03:00:07;;;;;;;8.43;7.10;;;20.80;99.90;;;;;;7586572;19;20010;-72
2023/08/15 03:02:40;;;;;;;9.48;7.32;;;20.80;99.90;;;;;;7589501;19;20037;-72
2023/08/15 03:05:13;;;;;;;12.18;7.57;;;20.80;99.90;;;;;;7589503;19;20052;-71
2023/08/15 03:07:45;;;;;;;10.07;7.78;;;20.80;99.90;;;;;;7587028;19;20010;-75
2023/08/15 03:10:17;;;;;;;7.57;6.50;;;20.70;99.90;;;;;;7589563;19;20030;-72
2023/08/15 03:12:51;;;;;;;10.07;7.40;;;20.70;99.90;;;;;;7589615;19;20736;-74
2023/08/15 03:15:23;;;;;;;9.38;7.00;;;20.60;99.90;;;;;;7594286;19;20073;-73
2023/08/15 03:17:57;;;;;;;11.52;7.45;;;20.50;99.90;;;;;;7595303;19;20022;-72
2023/08/15 03:20:30;;;;;;;8.15;7.32;;;20.40;99.90;;;;;;7595764;19;20056;-74
2023/08/15 03:23:03;;;;;;;10.20;7.35;;;20.50;99.90;;;;;;7595627;19;20026;-75
2023/08/15 03:25:36;;;;;;;11.27;7.28;;;20.40;99.90;;;;;;7594619;19;20103;-75
2023/08/15 03:28:08;;;;;;;9.43;7.57;;;20.40;99.90;;;;;;7596086;19;20018;-73
2023/08/15 03:30:41;;;;;;;11.13;6.88;;;20.30;99.90;;;;;;7589833;19;20016;-73
2023/08/15 03:33:14;;;;;;;8.82;6.72;;;20.30;99.90;;;;;;7594620;19;20040;-72
2023/08/15 03:35:48;;;;;;;9.57;7.23;;;20.20;99.90;;;;;;7595105;19;20018;-73
2023/08/15 03:38:21;;;;;;;9.60;7.07;;;20.20;99.90;;;;;;7595123;19;20026;-73
2023/08/15 03:41:04;;;;;;;12.77;8.35;;;20.10;99.90;;;;;;7591517;19;20658;-72
2023/08/15 03:43:37;;;;;;;11.65;7.25;;;20.00;99.90;;;;;;7593273;19;20025;-73
2023/08/15 03:46:09;;;;;;;10.32;7.03;;;20.00;99.90;;;;;;7592521;19;21357;-73
2023/08/15 03:48:42;;;;;;;10.65;6.85;;;20.00;99.90;;;;;;7598233;19;20045;-74
2023/08/15 03:51:14;;;;;;;11.82;7.13;;;20.00;99.90;;;;;;7599096;19;20018;-72
2023/08/15 03:54:08;;;;;;;10.88;6.85;;;19.90;99.90;;;;;;7596526;19;20086;-75
2023/08/15 03:56:41;;;;;;;10.18;7.40;;;19.90;99.90;;;;;;7595459;19;20130;-72
2023/08/15 03:59:13;;;;;;;11.45;7.00;;;19.90;99.90;;;;;;7595934;19;20018;-73
2023/08/15 04:01:45;;;;;;;11.13;7.13;;;20.00;99.90;;;;;;7593711;19;20022;-74
2023/08/15 04:04:17;;;;;;;8.00;7.10;;;20.00;99.90;;;;;;7595366;19;20022;-73
2023/08/15 04:06:50;;;;;;;7.00;6.30;;;20.10;99.90;;;;;;7593003;19;21839;-74
2023/08/15 04:09:23;;;;;;;10.93;7.20;;;20.10;99.90;;;;;;7595822;19;20025;-74
2023/08/15 04:11:55;;;;;;;8.02;6.95;;;20.10;99.90;;;;;;7591806;19;21382;-73
2023/08/15 04:14:27;;;;;;;9.63;6.68;;;20.10;99.90;;;;;;7593117;19;20022;-74
2023/08/15 04:17:00;;;;;;;11.53;6.70;;;20.10;99.90;;;;;;7588296;19;20022;-74
2023/08/15 04:19:33;;;;;;;7.88;6.82;;;20.00;99.90;;;;;;7594608;19;20010;-73
2023/08/15 04:22:05;;;;;;;9.18;6.32;;;20.00;99.90;;;;;;7598466;19;20048;-73
2023/08/15 04:24:38;;;;;;;8.65;7.38;;;20.00;99.90;;;;;;7592971;19;20052;-74
2023/08/15 04:27:11;;;;;;;9.80;6.63;;;20.00;99.90;;;;;;7598976;19;20590;-74
2023/08/15 04:29:43;;;;;;;8.87;6.90;;;20.00;99.90;;;;;;7594575;19;20019;-74
2023/08/15 04:32:15;;;;;;;8.23;6.07;;;20.00;99.90;;;;;;7596353;19;20121;-73
2023/08/15 04:34:48;;;;;;;8.37;6.43;;;20.00;99.90;;;;;;7591767;19;20018;-74
2023/08/15 04:37:23;;;;;;;10.35;7.03;;;20.10;99.90;;;;;;7588014;19;20105;-73
2023/08/15 04:39:55;;;;;;;12.00;6.88;;;20.00;99.90;;;;;;7596055;19;20018;-72
2023/08/15 04:42:27;;;;;;;11.10;6.80;;;20.00;99.90;;;;;;7598318;19;20044;-75
2023/08/15 04:45:00;;;;;;;8.05;6.18;;;20.10;99.90;;;;;;7590335;19;20038;-73
2023/08/15 04:47:32;;;;;;;11.63;6.60;;;20.20;99.90;;;;;;7593287;19;20040;-74
2023/08/15 04:50:05;;;;;;;9.85;6.10;;;20.20;99.90;;;;;;7594478;19;20925;-73
2023/08/15 04:52:37;;;;;;;9.93;6.32;;;20.20;99.90;;;;;;7592433;19;20052;-73
2023/08/15 04:55:13;;;;;;;10.05;6.78;;;20.20;99.90;;;;;;7591103;19;20925;-74
2023/08/15 04:57:45;;;;;;;7.53;6.28;;;20.30;99.90;;;;;;7591878;19;20829;-73
2023/08/15 05:00:19;;;;;;;8.45;5.85;;;20.40;99.90;;;;;;7594189;19;20011;-73
2023/08/15 05:02:52;;;;;;;11.85;6.32;;;20.40;99.90;;;;;;7592738;19;20086;-74
2023/08/15 05:05:25;;;;;;;7.22;5.70;;;20.40;99.90;;;;;;7591364;19;20997;-73
2023/08/15 05:07:57;;;;;;;7.07;5.85;;;20.40;99.90;;;;;;7592995;19;20025;-74
2023/08/15 05:10:29;;;;;;;6.85;5.70;;;20.50;99.90;;;;;;7592391;19;20022;-73
2023/08/15 05:13:03;;;;;;;;;;;20.50;99.90;;;;;;7594594;19;20033;-73
2023/08/15 05:15:35;;;;;;;6.97;4.90;;;20.60;99.90;;;;;;7583366;19;19915;-73
2023/08/15 05:18:10;;;;;;;10.20;5.73;;;20.70;99.90;;;;;;7599091;19;20644;-73
2023/08/15 05:20:46;;;;;;;6.10;5.22;;;20.70;99.90;;;;;;7592929;19;20014;-74
2023/08/15 05:23:19;;;;;;;8.13;5.15;;;20.80;99.90;;;;;;7590192;19;20022;-73
2023/08/15 05:25:52;;;;;;;7.63;5.22;;;20.80;99.90;;;;;;7586693;19;20617;-73
2023/08/15 05:28:25;;;;;;;8.32;5.65;;;20.80;99.90;;;;;;7594034;19;20040;-74
2023/08/15 05:30:57;;;;;;;8.30;5.65;;;20.70;99.90;;;;;;7582101;19;20018;-74
2023/08/15 05:33:29;;;;;;;10.65;6.10;;;20.70;99.90;;;;;;7594153;19;20029;-75
2023/08/15 05:36:02;;;;;;;8.40;5.70;;;20.80;99.90;;;;;;7586680;19;20029;-73
2023/08/15 05:38:36;;;;;;;7.40;5.10;;;20.80;99.90;;;;;;7592330;19;20019;-73
2023/08/15 05:41:09;;;;;;;8.88;5.22;;;20.80;99.90;;;;;;7594376;19;20034;-75
2023/08/15 05:43:41;;;;;;;8.65;5.38;;;20.80;99.90;;;;;;7592839;19;20029;-73
2023/08/15 05:46:14;;;;;;;7.13;5.47;;;20.90;99.90;;;;;;7594870;19;20103;-74
2023/08/15 05:48:46;;;;;;;5.82;5.32;;;21.00;99.90;;;;;;7595023;19;20099;-74
2023/08/15 05:51:18;;;;;;;7.80;5.40;;;21.10;99.90;;;;;;7591540;19;20026;-73
2023/08/15 05:53:51;;;;;;;6.97;4.90;;;21.30;99.90;;;;;;7593399;19;20018;-74
2023/08/15 05:56:23;;;;;;;7.65;5.45;;;21.40;99.90;;;;;;7594714;19;20794;-74
2023/08/15 05:58:55;;;;;;;6.77;5.17;;;21.50;99.90;;;;;;7589369;19;20030;-74
2023/08/15 06:01:28;;;;;;;8.88;5.00;;;21.70;99.90;;;;;;7592983;19;20048;-73
2023/08/15 06:04:01;;;;;;;6.60;5.13;;;21.80;99.90;;;;;;7592955;19;21160;-73
2023/08/15 06:06:33;;;;;;;7.40;5.63;;;21.90;99.90;;;;;;7593527;19;20022;-73
2023/08/15 06:09:06;;;;;;;6.27;4.87;;;21.90;99.90;;;;;;7582416;19;20026;-75
2023/08/15 06:11:38;;;;;;;7.90;5.32;;;22.10;99.90;;;;;;7594479;19;20019;-74
2023/08/15 06:14:10;;;;;;;8.57;5.13;;;22.20;99.90;;;;;;7592626;19;20014;-75
2023/08/15 06:16:43;;;;;;;6.60;4.90;;;22.30;99.90;;;;;;7589305;19;20022;-72
2023/08/15 06:19:15;;;;;;;6.63;4.80;;;22.40;99.90;;;;;;7593217;19;20018;-73
2023/08/15 06:21:48;;;;;;;7.82;4.90;;;22.60;99.90;;;;;;7589788;19;20476;-73
2023/08/15 06:24:20;;;;;;;5.50;4.90;;;22.70;99.90;;;;;;7592251;19;20025;-74
2023/08/15 06:26:52;;;;;;;5.80;4.60;;;22.80;99.90;;;;;;7591935;19;21317;-74
2023/08/15 06:29:25;;;;;;;6.65;4.68;;;23.00;99.90;;;;;;7588418;19;20023;-74
2023/08/15 06:31:59;;;;;;;5.47;4.38;;;23.10;99.90;;;;;;7590354;19;20025;-73
2023/08/15 06:34:31;;;;;;;5.65;4.75;;;23.30;99.90;;;;;;7590287;19;20026;-74
2023/08/15 06:37:04;;;;;;;7.00;4.97;;;23.30;99.90;;;;;;7585122;19;20018;-72
2023/08/15 06:39:36;;;;;;;5.07;4.38;;;23.50;99.90;;;;;;7590302;19;20070;-72
2023/08/15 06:42:10;;;;;;;5.95;4.82;;;23.60;99.90;;;;;;7590248;19;20022;-73
2023/08/15 06:44:43;;;;;;;6.47;4.05;;;23.70;99.90;;;;;;7588019;19;20025;-72
2023/08/15 06:47:15;;;;;;;5.00;4.50;;;23.80;99.90;;;;;;7594258;19;20671;-73
2023/08/15 06:49:47;;;;;;;5.82;4.32;;;24.00;99.90;;;;;;7595285;19;20117;-73
2023/08/15 06:52:19;;;;;;;7.20;5.07;;;24.10;99.90;;;;;;7601148;19;20011;-72
2023/08/15 06:54:52;;;;;;;5.40;4.43;;;24.20;99.90;;;;;;7594799;19;20026;-74
2023/08/15 06:57:24;;;;;;;4.95;4.45;;;24.30;99.90;;;;;;7598803;19;20059;-72
2023/08/15 06:59:56;;;;;;;6.22;4.65;;;24.50;99.90;;;;;;7600291;19;20055;-73
2023/08/15 07:02:29;;;;;;;6.53;4.40;;;24.60;99.90;;;;;;7596825;19;20023;-73
2023/08/15 07:05:03;;;;;;;6.57;4.25;;;24.70;99.90;;;;;;7594829;19;21037;-73
2023/08/15 07:07:37;;;;;;;4.85;3.97;;;24.80;99.90;;;;;;7598017;19;20022;-73
2023/08/15 07:10:10;;;;;;;5.60;4.07;;;25.00;99.90;;;;;;7598388;19;20920;-73
2023/08/15 07:12:42;;;;;;;4.45;3.72;;;25.10;99.90;;;;;;7601663;19;20488;-72
2023/08/15 07:15:18;;;;;;;7.60;4.55;;;25.20;99.90;;;;;;7596883;19;20059;-73
2023/08/15 07:17:51;;;;;;;5.00;4.00;;;25.30;99.90;;;;;;7595457;19;20006;-74
2023/08/15 07:20:24;;;;;;;7.30;4.85;;;25.50;99.90;;;;;;7601675;19;20022;-73
2023/08/15 07:22:56;;;;;;;5.18;4.22;;;25.60;99.90;;;;;;7593115;19;20014;-74
2023/08/15 07:25:28;;;;;;;5.93;3.70;;;25.70;99.90;;;;;;7596349;19;20920;-74
2023/08/15 07:28:00;;;;;;;5.43;3.88;;;25.80;99.90;;;;;;7597096;19;20011;-74
2023/08/15 07:30:33;;;;;;;4.47;3.80;;;25.90;99.90;;;;;;7596637;19;21407;-73
2023/08/15 07:33:06;;;;;;;5.68;4.22;;;26.00;99.90;;;;;;7597495;19;20048;-73
2023/08/15 07:35:38;;;;;;;9.25;4.18;;;26.10;99.90;;;;;;7596999;19;20026;-73
2023/08/15 07:38:10;;;;;;;6.10;3.80;;;26.30;99.90;;;;;;7594958;19;20487;-74
2023/08/15 07:40:43;;;;;;;4.97;4.07;;;26.40;99.60;;;;;;7596878;19;20042;-73
2023/08/15 07:43:16;;;;;;;;;;;26.50;99.40;;;;;;7597595;19;20066;-73
2023/08/15 07:45:48;;;;;;;5.07;4.57;;;26.60;98.80;;;;;;7592121;19;19914;-72
2023/08/15 07:48:20;;;;;;;10.13;3.97;;;26.70;98.70;;;;;;7598456;19;20010;-73
2023/08/15 07:50:54;;;;;;;6.28;4.78;;;26.80;98.50;;;;;;7590924;19;20733;-74
2023/08/15 07:53:26;;;;;;;;;;;26.90;98.70;;;;;;7597526;19;20042;-73
2023/08/15 07:55:58;;;;;;;6.43;4.30;;;27.00;98.80;;;;;;7594451;19;19918;-72
2023/08/15 07:58:33;;;;;;;6.40;4.43;;;27.10;98.40;;;;;;7595625;19;20015;-73
2023/08/15 08:01:05;;;;;;;6.38;4.78;;;27.10;98.70;;;;;;7597266;19;20023;-74
2023/08/15 08:03:41;;;;;;;5.25;4.75;;;27.20;99.20;;;;;;7598070;19;20019;-72
2023/08/15 08:06:13;;;;;;;7.57;5.28;;;27.40;98.90;;;;;;7594965;19;20093;-72
2023/08/15 08:09:06;;;;;;;6.90;5.60;;;27.50;99.30;;;;;;7596633;19;20349;-72
2023/08/15 08:11:38;;;;;;;6.40;5.23;;;27.60;99.30;;;;;;7595915;19;20033;-73
2023/08/15 08:14:11;;;;;;;6.33;4.97;;;27.50;98.40;;;;;;7577800;19;21666;-74
2023/08/15 08:16:43;;;;;;;9.87;5.70;;;27.50;98.90;;;;;;7585914;19;21162;-72
2023/08/15 08:19:16;;;;;;;6.97;5.07;;;27.50;98.10;;;;;;7584744;19;20411;-73
2023/08/15 08:21:48;;;;;;;6.75;5.38;;;27.60;98.40;;;;;;7590294;19;20047;-73
2023/08/15 08:24:20;;;;;;;6.05;5.45;;;27.70;98.50;;;;;;7590337;19;20022;-74
2023/08/15 08:26:52;;;;;;;8.38;5.45;;;27.70;98.00;;;;;;7589786;19;20029;-72
2023/08/15 08:29:27;;;;;;;6.97;5.40;;;27.70;97.90;;;;;;7598099;19;20025;-72
2023/08/15 08:31:59;;;;;;;8.40;5.60;;;27.80;98.20;;;;;;7588536;19;20638;-74
2023/08/15 08:34:31;;;;;;;5.93;5.37;;;27.90;97.90;;;;;;7586709;19;20499;-73
2023/08/15 08:37:04;;;;;;;5.97;5.38;;;28.10;97.80;;;;;;7585773;19;20086;-72
2023/08/15 08:39:37;;;;;;;6.40;5.25;;;28.10;97.60;;;;;;7587565;19;20086;-72
2023/08/15 08:42:10;;;;;;;6.18;5.40;;;28.20;97.70;;;;;;7597658;19;20022;-73
2023/08/15 08:44:42;;;;;;;5.50;5.00;;;28.20;97.50;;;;;;7585873;19;20027;-73
2023/08/15 08:47:19;;;;;;;6.45;5.85;;;28.30;97.30;;;;;;7592359;19;20014;-74
2023/08/15 08:49:53;;;;;;;14.00;5.57;;;28.40;96.90;;;;;;7595406;19;20026;-74
2023/08/15 08:52:28;;;;;;;9.38;5.80;;;28.40;97.60;;;;;;7600470;19;20122;-75
2023/08/15 08:55:01;;;;;;;6.68;5.53;;;28.50;97.60;;;;;;7592126;19;20052;-74
2023/08/15 08:57:35;;;;;;;5.47;4.93;;;28.50;97.60;;;;;;7601167;19;20471;-73
2023/08/15 09:00:10;;;;;;;8.15;5.55;;;28.70;98.00;;;;;;7582336;19;20025;-74
2023/08/15 09:02:43;;;;;;;7.03;5.50;;;28.80;98.60;;;;;;7597801;19;20022;-73
2023/08/15 09:05:15;;;;;;;;;;;28.80;98.50;;;;;;7593070;19;21319;-73
2023/08/15 09:07:49;;;;;;;7.80;6.10;;;28.80;97.30;;;;;;7595843;19;19934;-73
2023/08/15 09:10:22;;;;;;;6.78;6.07;;;28.80;98.00;;;;;;7595747;19;20018;-73
2023/08/15 09:12:59;;;;;;;;;;;28.90;97.90;;;;;;7593231;19;20115;-74
2023/08/15 09:15:32;;;;;;;10.73;6.15;;;28.90;97.80;;;;;;7593505;19;19918;-73
2023/08/15 09:18:07;;;;;;;8.60;6.30;;;29.00;98.10;;;;;;7592935;19;20027;-73
2023/08/15 09:20:46;;;;;;;10.77;6.30;;;28.90;97.90;;;;;;7600530;19;20026;-73
2023/08/15 09:23:19;;;;;;;10.73;6.40;;;28.90;97.70;;;;;;7594989;19;20025;-73
2023/08/15 09:25:55;;;;;;;7.47;6.50;;;29.00;97.60;;;;;;7596005;19;20007;-74
2023/08/15 09:28:39;;;;;;;9.10;6.50;;;29.00;97.80;;;;;;7598469;19;20014;-72
2023/08/15 09:31:12;;;;;;;7.38;6.10;;;28.90;97.50;;;;;;7589502;19;20140;-74
2023/08/15 09:33:46;;;;;;;7.47;6.57;;;29.00;98.10;;;;;;7596861;19;20509;-74
2023/08/15 09:36:18;;;;;;;8.27;6.47;;;29.00;98.10;;;;;;7594443;19;20011;-72
2023/08/15 09:38:53;;;;;;;7.18;6.32;;;29.00;97.60;;;;;;7592212;19;20014;-73
2023/08/15 09:41:26;;;;;;;9.68;6.03;;;29.10;97.40;;;;;;7591752;19;20026;-73
2023/08/15 09:43:59;;;;;;;10.77;6.25;;;29.10;98.20;;;;;;7591893;19;20018;-73
2023/08/15 09:46:32;;;;;;;10.13;7.00;;;29.10;97.90;;;;;;7596100;19;20026;-74
2023/08/15 09:49:05;;;;;;;;;;;29.10;97.40;;;;;;7593859;19;20977;-75
2023/08/15 09:51:37;;;;;;;10.82;6.22;;;29.00;97.40;;;;;;7598223;19;19918;-74
2023/08/15 09:54:10;;;;;;;8.13;6.93;;;29.10;97.20;;;;;;7588543;19;20121;-73
2023/08/15 09:56:43;;;;;;;;;;;29.10;97.50;;;;;;7596018;19;20018;-73
2023/08/15 09:59:15;;;;;;;8.82;6.80;;;29.10;97.70;;;;;;7588884;19;19937;-74
2023/08/15 10:01:52;;;;;;;8.07;6.60;;;29.10;97.70;;;;;;7594231;19;20015;-72
2023/08/15 10:04:30;;;;;;;7.38;6.15;;;29.20;97.60;;;;;;7591529;19;20031;-73
2023/08/15 10:07:04;;;;;;;8.85;6.65;;;29.30;97.90;;;;;;7592988;19;20010;-73
2023/08/15 10:09:36;;;;;;;13.10;7.00;;;29.30;98.10;;;;;;7591533;19;20033;-73
2023/08/15 10:12:09;;;;;;;12.70;6.20;;;29.40;98.00;;;;;;7593610;19;20018;-73
2023/08/15 10:14:45;;;;;;;9.65;6.72;;;29.40;97.10;;;;;;7593370;19;20025;-74
2023/08/15 10:17:18;;;;;;;8.00;7.13;;;29.40;97.60;;;;;;7586484;19;20019;-73
2023/08/15 10:19:51;;;;;;;7.85;7.00;;;29.30;96.70;;;;;;7594753;19;20038;-73
2023/08/15 10:22:24;;;;;;;9.90;7.15;;;29.30;97.10;;;;;;7591336;19;20015;-74
2023/08/15 10:25:22;;;;;;;8.40;7.57;;;29.50;98.10;;;;;;7593122;19;20022;-73
2023/08/15 10:27:56;;;;;;;9.88;6.72;;;29.60;97.60;;;;;;7596342;19;20015;-73
2023/08/15 10:30:33;;;;;;;;;;;29.60;97.80;;;;;;7589540;19;20025;-74
2023/08/15 10:33:13;;;;;;;8.63;7.20;;;29.70;98.10;;;;;;7588957;19;19929;-73
2023/08/15 10:36:05;;;;;;;9.93;7.53;;;29.80;97.90;;;;;;7590369;19;21238;-74
2023/08/15 10:38:40;;;;;;;8.95;7.18;;;29.80;98.10;;;;;;7588251;19;20014;-73
2023/08/15 10:41:15;;;;;;;7.95;7.13;;;29.80;96.50;;;;;;7590892;19;20033;-73
2023/08/15 10:43:49;;;;;;;9.55;7.28;;;29.90;97.40;;;;;;7590252;19;21019;-73
2023/08/15 10:46:27;;;;;;;9.32;7.55;;;30.10;97.80;;;;;;7590042;19;20010;-72
2023/08/15 10:49:08;;;;;;;8.30;7.40;;;30.20;97.20;;;;;;7594885;19;20014;-73
2023/08/15 10:51:41;;;;;;;8.05;6.82;;;30.20;97.30;;;;;;7593495;19;20011;-73
2023/08/15 10:54:15;;;;;;;8.85;7.13;;;30.30;96.40;;;;;;7589869;19;20018;-72
2023/08/15 10:56:47;;;;;;;8.32;6.28;;;30.40;95.50;;;;;;7592269;19;20010;-73
2023/08/15 10:59:20;;;;;;;9.43;6.40;;;30.40;94.40;;;;;;7588489;19;20026;-74
2023/08/15 11:01:55;;;;;;;7.75;6.90;;;30.60;95.70;;;;;;7591755;19;20014;-73
2023/08/15 11:04:29;;;;;;;8.82;7.18;;;30.60;95.80;;;;;;7592132;19;20015;-73
2023/08/15 11:07:02;;;;;;;7.07;6.35;;;30.70;95.10;;;;;;7595035;19;20015;-74
2023/08/15 11:09:34;;;;;;;7.60;6.83;;;31.10;96.20;;;;;;7590201;19;20022;-72
2023/08/15 11:12:08;;;;;;;7.93;7.20;;;31.40;94.40;;;;;;7592330;19;20022;-72
2023/08/15 11:14:40;;;;;;;9.70;7.28;;;31.40;94.80;;;;;;7581188;19;20559;-75
2023/08/15 11:17:13;;;;;;;7.97;7.17;;;31.20;95.30;;;;;;7589015;19;20018;-74
2023/08/15 11:19:46;;;;;;;8.50;7.43;;;31.10;95.20;;;;;;7589424;19;20033;-74
2023/08/15 11:22:18;;;;;;;10.27;7.05;;;30.80;95.30;;;;;;7594458;19;20042;-73
2023/08/15 11:24:51;;;;;;;9.40;7.55;;;30.70;95.10;;;;;;7588642;19;20894;-74
2023/08/15 11:27:23;;;;;;;8.93;7.10;;;30.60;95.30;;;;;;7593091;19;20025;-74
2023/08/15 11:29:58;;;;;;;15.70;7.90;;;30.60;96.30;;;;;;7587180;19;20018;-74
2023/08/15 11:32:31;;;;;;;9.95;6.68;;;30.50;95.00;;;;;;7590564;19;20017;-73
2023/08/15 11:35:04;;;;;;;8.70;7.47;;;30.50;95.30;;;;;;7592218;19;20018;-73
2023/08/15 11:37:37;;;;;;;8.45;7.20;;;30.40;95.80;;;;;;7593549;19;20014;-73
2023/08/15 11:40:10;;;;;;;10.13;7.50;;;30.30;95.80;;;;;;7596366;19;20015;-72
2023/08/15 11:42:43;;;;;;;8.60;7.70;;;30.30;95.70;;;;;;7598866;19;20123;-73
2023/08/15 11:45:20;;;;;;;;;;;30.40;95.70;;;;;;7591233;19;20030;-73
2023/08/15 11:48:01;;;;;;;9.00;8.07;;;30.50;96.30;;;;;;7596693;19;19918;-73
2023/08/15 11:50:34;;;;;;;11.52;7.10;;;30.40;96.10;;;;;;7599159;19;20074;-72
2023/08/15 11:53:16;;;;;;;8.80;7.25;;;30.40;96.20;;;;;;7597962;19;21083;-72
2023/08/15 11:55:49;;;;;;;12.05;7.60;;;30.40;95.90;;;;;;7598314;19;20019;-73
2023/08/15 11:58:29;;;;;;;8.07;7.27;;;30.30;96.20;;;;;;7597902;19;20030;-73
2023/08/15 12:01:05;;;;;;;8.35;7.55;;;30.20;96.30;;;;;;7594104;19;20280;-74
2023/08/15 12:03:38;;;;;;;8.43;7.30;;;30.10;96.50;;;;;;7597554;19;20024;-73
2023/08/15 12:06:13;;;;;;;9.07;7.47;;;30.00;96.20;;;;;;7595747;19;20059;-74
2023/08/15 12:08:46;;;;;;;11.32;7.50;;;30.00;96.50;;;;;;7596541;19;20555;-73
2023/08/15 12:11:20;;;;;;;12.15;7.85;;;30.00;97.20;;;;;;7597773;19;20368;-73
2023/08/15 12:13:52;;;;;;;8.85;7.65;;;29.90;96.60;;;;;;7595241;19;20052;-73
2023/08/15 12:16:25;;;;;;;8.90;7.97;;;29.90;96.80;;;;;;7595623;19;20885;-72
2023/08/15 12:18:57;;;;;;;9.07;7.30;;;29.90;96.90;;;;;;7590105;19;20731;-73
2023/08/15 12:21:29;;;;;;;9.03;7.80;;;29.90;97.10;;;;;;7597938;19;20022;-72
2023/08/15 12:24:02;;;;;;;9.07;8.20;;;29.70;97.90;;;;;;7596243;19;20062;-73
2023/08/15 12:26:34;;;;;;;10.63;8.27;;;29.60;97.40;;;;;;7598037;19;20015;-74
2023/08/15 12:29:06;;;;;;;10.98;8.02;;;29.60;98.00;;;;;;7592823;19;20067;-73
2023/08/15 12:31:40;;;;;;;8.85;8.05;;;29.50;99.30;;;;;;7597616;19;20515;-73
2023/08/15 12:34:12;;;;;;;11.23;8.90;;;29.40;99.70;;;;;;7592174;19;20029;-72
2023/08/15 12:36:44;;;;;;;15.48;9.98;;;29.20;99.90;;;;;;7597679;19;20029;-73
2023/08/15 12:39:18;;;;;;;14.47;10.33;;;29.00;99.90;;;;;;7595873;19;20025;-72
2023/08/15 12:41:51;;;;;;;11.38;9.55;;;28.60;99.90;;;;;;7600643;19;20889;-74
2023/08/15 12:44:23;;;;;;;15.23;9.82;;;28.30;99.90;;;;;;7596435;19;20018;-73
2023/08/15 12:46:56;;;;;;;16.63;9.77;;;27.90;99.90;;;;;;7599240;19;20025;-72
2023/08/15 12:49:28;;;;;;;17.00;10.15;;;27.60;99.90;;;;;;7601883;19;20022;-73
2023/08/15 12:52:01;;;;;;;17.33;9.88;;;27.10;99.90;;;;;;7596471;19;20061;-72
2023/08/15 12:54:34;;;;;;;17.20;11.55;;;26.00;99.90;;;;;;7596258;19;20038;-74
2023/08/15 12:57:09;;;;;;;23.20;12.45;;;24.60;99.90;;;;;;7595980;19;20040;-74
2023/08/15 12:59:41;;;;;;;8.88;6.40;;;23.70;99.90;;;;;;7593188;19;20014;-76
2023/08/15 13:02:14;;;;;;;11.50;7.67;;;22.80;99.90;;;;;;7601968;19;20022;-72
2023/08/15 13:04:47;;;;;;;;;;;22.10;99.90;;;;;;7596424;19;20105;-72
2023/08/15 13:07:19;;;;;;;9.98;7.22;;;21.80;99.90;;;;;;7593503;19;19929;-75
2023/08/15 13:09:51;;;;;;;9.90;6.85;;;21.80;99.90;;;;;;7597652;19;20313;-74
2023/08/15 13:12:24;;;;;;;10.70;7.57;;;21.80;99.90;;;;;;7597606;19;20022;-74
2023/08/15 13:14:56;;;;;;;9.17;7.33;;;21.80;99.90;;;;;;7595736;19;20022;-73
2023/08/15 13:17:28;;;;;;;17.63;8.02;;;21.90;99.90;;;;;;7602460;19;21150;-75